Woods Hole — WDI3700 — position and weather

sailwx.info

Track history (hours):
 
Tides and Currents Weather Stations Pressure Air Temp Water Temp Dewpoint Dewpoint Depression Visibility Wind Speed Wind Dir Waves Ship Positions

Woods Hole

Owner: WOODS HOLE,MARTHA'S VINEYARD AND NANTUCKET STEAMSHIP AUTHORITY, Woods Hole, MA. More information available from US FCC via Universal Licensing System and Coast Guard Vessel Documentation Center.

Last reported at 2018-Jul-17 01:40 UTC. Time now 2018-Jul-17 04:09 UTC.
Position N 41°36' W 070°17'.

Length 70 m; draft 4 m.

Type: Passenger vessel. MMSI: 367691010.

Date/timePositionNaut miles runAvg speedWind from/ knotsBaromVisibWave heightAir tempDewpointWater temp
2018-Jul-17 01:40N 41°36' W 070°17'212.0
2018-Jul-17 01:30N 41°34' W 070°16'612.6
2018-Jul-17 01:00N 41°29' W 070°12'4 1.6
2018-Jul-16 22:15N 41°32' W 070°16'6 0.1
2018-Jul-15 01:55N 41°38' W 070°16'5 9.4
2018-Jul-15 01:24N 41°33' W 070°15'513.3
2018-Jul-15 01:00N 41°29' W 070°11'913.8
2018-Jul-15 00:23N 41°21' W 070°07'18 4.7
2018-Jul-14 20:30N 41°37' W 070°17'813.2
2018-Jul-14 19:53N 41°30' W 070°13'615.1
2018-Jul-14 19:30N 41°25' W 070°10'812.5
2018-Jul-14 18:53N 41°17' W 070°05'0 0.6
2018-Jul-14 18:17N 41°17' W 070°06'3 6.5
2018-Jul-14 17:45N 41°20' W 070°07'514.3
2018-Jul-14 17:26N 41°25' W 070°10'613.6
2018-Jul-14 17:00N 41°30' W 070°14'713.5
2018-Jul-14 16:30N 41°36' W 070°17'3 6.1
2018-Jul-14 16:00N 41°39' W 070°17'0 0.0
2018-Jul-14 15:30N 41°39' W 070°17'2 4.5
2018-Jul-14 15:00N 41°37' W 070°17'1313.1
2018-Jul-14 14:01N 41°25' W 070°10'713.3
2018-Jul-14 13:30N 41°19' W 070°06'2 3.4
2018-Jul-14 13:01N 41°17' W 070°06'1 1.8
2018-Jul-14 12:29N 41°18' W 070°06'613.2
2018-Jul-14 12:00N 41°24' W 070°10'714.0
2018-Jul-14 11:30N 41°30' W 070°14'612.7
2018-Jul-14 11:00N 41°36' W 070°17'3 1.1
2018-Jul-14 08:19N 41°39' W 070°17'3 0.5
2018-Jul-14 01:53N 41°36' W 070°17'713.7
2018-Jul-14 01:25N 41°30' W 070°13'14 8.1
2018-Jul-13 23:41N 41°17' W 070°05'1212.3
2018-Jul-13 22:44N 41°28' W 070°12'10 1.1
2018-Jul-13 13:30N 41°19' W 070°06'2 2.8
2018-Jul-13 12:50N 41°17' W 070°06'1 4.0
2018-Jul-13 12:30N 41°18' W 070°06'1014.5
2018-Jul-13 11:49N 41°28' W 070°11'514.9
2018-Jul-13 11:27N 41°32' W 070°15'5 9.0
2018-Jul-13 10:52N 41°38' W 070°17'2 0.5
2018-Jul-13 07:54N 41°39' W 070°17'0 0.0
2018-Jul-13 07:30N 41°39' W 070°17'0 0.0
2018-Jul-13 06:06N 41°39' W 070°17'0 0.0
2018-Jul-13 05:58N 41°39' W 070°17'0 0.0
2018-Jul-13 03:26N 41°39' W 070°17'0 0.0
2018-Jul-13 02:32N 41°39' W 070°17'0 0.0
2018-Jul-13 02:29N 41°39' W 070°17'0 0.4
2018-Jul-13 02:00N 41°39' W 070°17'4 8.4
2018-Jul-13 01:30N 41°35' W 070°16'713.3
2018-Jul-13 00:59N 41°29' W 070°12'913.9
2018-Jul-13 00:20N 41°20' W 070°07'3 4.5
2018-Jul-12 23:36N 41°17' W 070°06'0 2.2
2018-Jul-12 23:30N 41°17' W 070°05'913.0
2018-Jul-12 22:50N 41°25' W 070°10'714.7
2018-Jul-12 22:22N 41°31' W 070°14'610.9
2018-Jul-12 21:46N 41°38' W 070°17'1 1.5
2018-Jul-12 20:53N 41°39' W 070°17'2 5.8
2018-Jul-12 20:29N 41°37' W 070°17'612.1
2018-Jul-12 20:00N 41°31' W 070°14'713.2
2018-Jul-12 19:30N 41°25' W 070°10'713.6
2018-Jul-12 18:57N 41°19' W 070°06'9 5.4
2018-Jul-12 17:15N 41°27' W 070°12'413.2
2018-Jul-12 16:59N 41°30' W 070°14'4 1.6
2018-Jul-12 14:43N 41°33' W 070°15'313.3
2018-Jul-12 14:29N 41°30' W 070°13'14 7.7
2018-Jul-12 12:37N 41°17' W 070°06'0 3.0
2018-Jul-12 12:30N 41°17' W 070°05'713.4
2018-Jul-12 11:58N 41°24' W 070°09'16 1.8
2018-Jul-12 03:09N 41°39' W 070°17'1 7.4
2018-Jul-12 03:00N 41°38' W 070°16'611.1
2018-Jul-12 02:30N 41°32' W 070°15'4 1.7
2018-Jul-11 23:57N 41°28' W 070°12'714.8
2018-Jul-11 23:29N 41°35' W 070°16'4 0.1
2018-Jul-10 14:22N 41°39' W 070°17'2 6.5
2018-Jul-10 14:00N 41°37' W 070°18'2 4.5
2018-Jul-10 13:30N 41°39' W 070°16'10 0.8
2018-Jul-10 01:07N 41°29' W 070°12'414.5
2018-Jul-10 00:52N 41°25' W 070°10'514.2
2018-Jul-10 00:30N 41°21' W 070°07'4 0.3
2018-Jul-09 13:06N 41°17' W 070°06'0 0.0
2018-Jul-09 13:00N 41°17' W 070°06'3 3.8
2018-Jul-09 12:21N 41°20' W 070°07'1114.0
2018-Jul-09 11:35N 41°29' W 070°13'314.0
2018-Jul-09 11:22N 41°32' W 070°15'512.5
2018-Jul-09 10:59N 41°36' W 070°17'3 2.6
2018-Jul-09 09:55N 41°39' W 070°17'0 0.0
2018-Jul-09 08:46N 41°39' W 070°17'0 0.0
2018-Jul-09 08:28N 41°39' W 070°17'0 0.0
2018-Jul-09 08:00N 41°39' W 070°17'0 0.0
2018-Jul-09 07:30N 41°39' W 070°17'0 0.0
2018-Jul-09 06:59N 41°39' W 070°17'0 0.0
2018-Jul-09 05:49N 41°39' W 070°17'0 0.0
2018-Jul-09 05:30N 41°39' W 070°17'0 0.0
2018-Jul-09 05:00N 41°39' W 070°17'0 0.0
2018-Jul-09 04:30N 41°39' W 070°17'0 0.0
2018-Jul-09 04:00N 41°39' W 070°17'0 0.0
2018-Jul-09 03:30N 41°39' W 070°17'0 0.0
2018-Jul-09 02:59N 41°39' W 070°17'0 0.0
2018-Jul-09 02:16N 41°39' W 070°17'1 3.5
2018-Jul-09 01:56N 41°38' W 070°16'4 8.6
2018-Jul-09 01:30N 41°34' W 070°16'612.9
2018-Jul-09 01:00N 41°29' W 070°12'713.8
2018-Jul-09 00:31N 41°22' W 070°08'6 6.2
2018-Jul-08 23:37N 41°17' W 070°06'0 2.1
2018-Jul-08 23:29N 41°17' W 070°05'16 1.3
2018-Jul-08 11:20N 41°31' W 070°15'512.5
2018-Jul-08 10:58N 41°36' W 070°17'  
Track history (hours):
 
Tides and Currents Weather Stations Pressure Air Temp Water Temp Dewpoint Dewpoint Depression Visibility Wind Speed Wind Dir Waves Ship Positions

Woods Hole

Owner: WOODS HOLE,MARTHA'S VINEYARD AND NANTUCKET STEAMSHIP AUTHORITY, Woods Hole, MA. More information available from US FCC via Universal Licensing System and Coast Guard Vessel Documentation Center.

Last reported at 2018-Jul-17 01:40 UTC. Time now 2018-Jul-17 04:09 UTC.
Position N 41°36' W 070°17'.

Length 70 m; draft 4 m.

Type: Passenger vessel. MMSI: 367691010.

Date/timePositionNaut miles runAvg speedWind from/ knotsBaromVisibWave heightAir tempDewpointWater temp
2018-Jul-17 01:40N 41°36' W 070°17'212.0
2018-Jul-17 01:30N 41°34' W 070°16'612.6
2018-Jul-17 01:00N 41°29' W 070°12'4 1.6
2018-Jul-16 22:15N 41°32' W 070°16'6 0.1
2018-Jul-15 01:55N 41°38' W 070°16'5 9.4
2018-Jul-15 01:24N 41°33' W 070°15'513.3
2018-Jul-15 01:00N 41°29' W 070°11'913.8
2018-Jul-15 00:23N 41°21' W 070°07'18 4.7
2018-Jul-14 20:30N 41°37' W 070°17'813.2
2018-Jul-14 19:53N 41°30' W 070°13'615.1
2018-Jul-14 19:30N 41°25' W 070°10'812.5
2018-Jul-14 18:53N 41°17' W 070°05'0 0.6
2018-Jul-14 18:17N 41°17' W 070°06'3 6.5
2018-Jul-14 17:45N 41°20' W 070°07'514.3
2018-Jul-14 17:26N 41°25' W 070°10'613.6
2018-Jul-14 17:00N 41°30' W 070°14'713.5
2018-Jul-14 16:30N 41°36' W 070°17'3 6.1
2018-Jul-14 16:00N 41°39' W 070°17'0 0.0
2018-Jul-14 15:30N 41°39' W 070°17'2 4.5
2018-Jul-14 15:00N 41°37' W 070°17'1313.1
2018-Jul-14 14:01N 41°25' W 070°10'713.3
2018-Jul-14 13:30N 41°19' W 070°06'2 3.4
2018-Jul-14 13:01N 41°17' W 070°06'1 1.8
2018-Jul-14 12:29N 41°18' W 070°06'613.2
2018-Jul-14 12:00N 41°24' W 070°10'714.0
2018-Jul-14 11:30N 41°30' W 070°14'612.7
2018-Jul-14 11:00N 41°36' W 070°17'3 1.1
2018-Jul-14 08:19N 41°39' W 070°17'3 0.5
2018-Jul-14 01:53N 41°36' W 070°17'713.7
2018-Jul-14 01:25N 41°30' W 070°13'14 8.1
2018-Jul-13 23:41N 41°17' W 070°05'1212.3
2018-Jul-13 22:44N 41°28' W 070°12'10 1.1
2018-Jul-13 13:30N 41°19' W 070°06'2 2.8
2018-Jul-13 12:50N 41°17' W 070°06'1 4.0
2018-Jul-13 12:30N 41°18' W 070°06'1014.5
2018-Jul-13 11:49N 41°28' W 070°11'514.9
2018-Jul-13 11:27N 41°32' W 070°15'5 9.0
2018-Jul-13 10:52N 41°38' W 070°17'2 0.5
2018-Jul-13 07:54N 41°39' W 070°17'0 0.0
2018-Jul-13 07:30N 41°39' W 070°17'0 0.0
2018-Jul-13 06:06N 41°39' W 070°17'0 0.0
2018-Jul-13 05:58N 41°39' W 070°17'0 0.0
2018-Jul-13 03:26N 41°39' W 070°17'0 0.0
2018-Jul-13 02:32N 41°39' W 070°17'0 0.0
2018-Jul-13 02:29N 41°39' W 070°17'0 0.4
2018-Jul-13 02:00N 41°39' W 070°17'4 8.4
2018-Jul-13 01:30N 41°35' W 070°16'713.3
2018-Jul-13 00:59N 41°29' W 070°12'913.9
2018-Jul-13 00:20N 41°20' W 070°07'3 4.5
2018-Jul-12 23:36N 41°17' W 070°06'0 2.2
2018-Jul-12 23:30N 41°17' W 070°05'913.0
2018-Jul-12 22:50N 41°25' W 070°10'714.7
2018-Jul-12 22:22N 41°31' W 070°14'610.9
2018-Jul-12 21:46N 41°38' W 070°17'1 1.5
2018-Jul-12 20:53N 41°39' W 070°17'2 5.8
2018-Jul-12 20:29N 41°37' W 070°17'612.1
2018-Jul-12 20:00N 41°31' W 070°14'713.2
2018-Jul-12 19:30N 41°25' W 070°10'713.6
2018-Jul-12 18:57N 41°19' W 070°06'9 5.4
2018-Jul-12 17:15N 41°27' W 070°12'413.2
2018-Jul-12 16:59N 41°30' W 070°14'4 1.6
2018-Jul-12 14:43N 41°33' W 070°15'313.3
2018-Jul-12 14:29N 41°30' W 070°13'14 7.7
2018-Jul-12 12:37N 41°17' W 070°06'0 3.0
2018-Jul-12 12:30N 41°17' W 070°05'713.4
2018-Jul-12 11:58N 41°24' W 070°09'16 1.8
2018-Jul-12 03:09N 41°39' W 070°17'1 7.4
2018-Jul-12 03:00N 41°38' W 070°16'611.1
2018-Jul-12 02:30N 41°32' W 070°15'4 1.7
2018-Jul-11 23:57N 41°28' W 070°12'714.8
2018-Jul-11 23:29N 41°35' W 070°16'4 0.1
2018-Jul-10 14:22N 41°39' W 070°17'2 6.5
2018-Jul-10 14:00N 41°37' W 070°18'2 4.5
2018-Jul-10 13:30N 41°39' W 070°16'10 0.8
2018-Jul-10 01:07N 41°29' W 070°12'414.5
2018-Jul-10 00:52N 41°25' W 070°10'514.2
2018-Jul-10 00:30N 41°21' W 070°07'4 0.3
2018-Jul-09 13:06N 41°17' W 070°06'0 0.0
2018-Jul-09 13:00N 41°17' W 070°06'3 3.8
2018-Jul-09 12:21N 41°20' W 070°07'1114.0
2018-Jul-09 11:35N 41°29' W 070°13'314.0
2018-Jul-09 11:22N 41°32' W 070°15'512.5
2018-Jul-09 10:59N 41°36' W 070°17'3 2.6
2018-Jul-09 09:55N 41°39' W 070°17'0 0.0
2018-Jul-09 08:46N 41°39' W 070°17'0 0.0
2018-Jul-09 08:28N 41°39' W 070°17'0 0.0
2018-Jul-09 08:00N 41°39' W 070°17'0 0.0
2018-Jul-09 07:30N 41°39' W 070°17'0 0.0
2018-Jul-09 06:59N 41°39' W 070°17'0 0.0
2018-Jul-09 05:49N 41°39' W 070°17'0 0.0
2018-Jul-09 05:30N 41°39' W 070°17'0 0.0
2018-Jul-09 05:00N 41°39' W 070°17'0 0.0
2018-Jul-09 04:30N 41°39' W 070°17'0 0.0
2018-Jul-09 04:00N 41°39' W 070°17'0 0.0
2018-Jul-09 03:30N 41°39' W 070°17'0 0.0
2018-Jul-09 02:59N 41°39' W 070°17'0 0.0
2018-Jul-09 02:16N 41°39' W 070°17'1 3.5
2018-Jul-09 01:56N 41°38' W 070°16'4 8.6
2018-Jul-09 01:30N 41°34' W 070°16'612.9
2018-Jul-09 01:00N 41°29' W 070°12'713.8
2018-Jul-09 00:31N 41°22' W 070°08'6 6.2
2018-Jul-08 23:37N 41°17' W 070°06'0 2.1
2018-Jul-08 23:29N 41°17' W 070°05'16 1.3
2018-Jul-08 11:20N 41°31' W 070°15'512.5
2018-Jul-08 10:58N 41°36' W 070°17'  

Dump ship's entire track history